sensor_id;sensor_type;location;lat;lon;timestamp;temperature;humidity
75022;SHT31;63583;49.976;20.182;2023-08-17T00:01:40;22.39;75.13
75022;SHT31;63583;49.976;20.182;2023-08-17T00:04:06;22.32;75.71
75022;SHT31;63583;49.976;20.182;2023-08-17T00:06:31;22.29;75.14
75022;SHT31;63583;49.976;20.182;2023-08-17T00:08:57;22.29;75.25
75022;SHT31;63583;49.976;20.182;2023-08-17T00:11:22;22.28;74.31
75022;SHT31;63583;49.976;20.182;2023-08-17T00:13:48;22.28;73.87
75022;SHT31;63583;49.976;20.182;2023-08-17T00:16:14;22.28;73.54
75022;SHT31;63583;49.976;20.182;2023-08-17T00:18:40;22.31;72.31
75022;SHT31;63583;49.976;20.182;2023-08-17T00:21:05;22.32;73.98
75022;SHT31;63583;49.976;20.182;2023-08-17T00:23:31;22.32;72.54
75022;SHT31;63583;49.976;20.182;2023-08-17T00:25:57;22.33;71.59
75022;SHT31;63583;49.976;20.182;2023-08-17T00:28:22;22.35;70.46
75022;SHT31;63583;49.976;20.182;2023-08-17T00:30:48;22.38;69.71
75022;SHT31;63583;49.976;20.182;2023-08-17T00:33:14;22.38;70.11
75022;SHT31;63583;49.976;20.182;2023-08-17T00:35:39;22.60;69.59
75022;SHT31;63583;49.976;20.182;2023-08-17T00:38:05;22.53;69.64
75022;SHT31;63583;49.976;20.182;2023-08-17T00:40:30;22.51;70.15
75022;SHT31;63583;49.976;20.182;2023-08-17T00:42:56;22.42;71.51
75022;SHT31;63583;49.976;20.182;2023-08-17T00:45:23;22.33;71.58
75022;SHT31;63583;49.976;20.182;2023-08-17T00:47:49;22.33;71.38
75022;SHT31;63583;49.976;20.182;2023-08-17T00:50:15;22.32;70.86
75022;SHT31;63583;49.976;20.182;2023-08-17T00:52:42;22.32;70.74
75022;SHT31;63583;49.976;20.182;2023-08-17T00:55:09;22.35;70.64
75022;SHT31;63583;49.976;20.182;2023-08-17T00:57:36;22.39;71.24
75022;SHT31;63583;49.976;20.182;2023-08-17T01:00:02;22.41;70.18
75022;SHT31;63583;49.976;20.182;2023-08-17T01:02:30;22.42;69.66
75022;SHT31;63583;49.976;20.182;2023-08-17T01:04:56;22.41;70.23
75022;SHT31;63583;49.976;20.182;2023-08-17T01:07:22;22.43;70.43
75022;SHT31;63583;49.976;20.182;2023-08-17T01:09:47;22.42;70.39
75022;SHT31;63583;49.976;20.182;2023-08-17T01:12:19;22.41;70.06
75022;SHT31;63583;49.976;20.182;2023-08-17T01:15:03;22.36;69.27
75022;SHT31;63583;49.976;20.182;2023-08-17T01:17:40;22.35;68.89
75022;SHT31;63583;49.976;20.182;2023-08-17T01:20:08;22.36;68.96
75022;SHT31;63583;49.976;20.182;2023-08-17T01:22:41;22.35;68.63
75022;SHT31;63583;49.976;20.182;2023-08-17T01:25:08;22.33;69.70
75022;SHT31;63583;49.976;20.182;2023-08-17T01:27:38;21.84;71.51
75022;SHT31;63583;49.976;20.182;2023-08-17T01:30:05;21.88;71.39
75022;SHT31;63583;49.976;20.182;2023-08-17T01:32:45;21.81;71.88
75022;SHT31;63583;49.976;20.182;2023-08-17T01:35:25;21.86;71.95
75022;SHT31;63583;49.976;20.182;2023-08-17T01:37:53;21.80;71.98
75022;SHT31;63583;49.976;20.182;2023-08-17T01:40:20;21.84;71.87
75022;SHT31;63583;49.976;20.182;2023-08-17T01:42:46;21.84;71.90
75022;SHT31;63583;49.976;20.182;2023-08-17T01:45:13;21.87;71.75
75022;SHT31;63583;49.976;20.182;2023-08-17T01:47:39;22.09;70.07
75022;SHT31;63583;49.976;20.182;2023-08-17T01:50:05;22.12;71.06
75022;SHT31;63583;49.976;20.182;2023-08-17T01:52:30;22.08;69.13
75022;SHT31;63583;49.976;20.182;2023-08-17T01:54:56;22.14;68.40
75022;SHT31;63583;49.976;20.182;2023-08-17T01:57:22;22.22;68.66
75022;SHT31;63583;49.976;20.182;2023-08-17T01:59:47;22.21;69.29
75022;SHT31;63583;49.976;20.182;2023-08-17T02:02:13;22.21;68.86
75022;SHT31;63583;49.976;20.182;2023-08-17T02:04:40;22.11;69.50
75022;SHT31;63583;49.976;20.182;2023-08-17T02:07:06;22.15;69.29
75022;SHT31;63583;49.976;20.182;2023-08-17T02:09:31;22.05;70.71
75022;SHT31;63583;49.976;20.182;2023-08-17T02:11:57;22.08;69.84
75022;SHT31;63583;49.976;20.182;2023-08-17T02:14:22;22.12;69.06
75022;SHT31;63583;49.976;20.182;2023-08-17T02:16:48;22.02;71.10
75022;SHT31;63583;49.976;20.182;2023-08-17T02:19:14;21.83;72.75
75022;SHT31;63583;49.976;20.182;2023-08-17T02:21:40;21.70;73.73
75022;SHT31;63583;49.976;20.182;2023-08-17T02:24:05;21.50;74.81
75022;SHT31;63583;49.976;20.182;2023-08-17T02:26:31;21.60;73.55
75022;SHT31;63583;49.976;20.182;2023-08-17T02:28:57;21.53;73.98
75022;SHT31;63583;49.976;20.182;2023-08-17T02:31:23;21.53;73.82
75022;SHT31;63583;49.976;20.182;2023-08-17T02:33:48;21.49;74.06
75022;SHT31;63583;49.976;20.182;2023-08-17T02:36:14;21.46;73.68
75022;SHT31;63583;49.976;20.182;2023-08-17T02:38:40;21.54;72.48
75022;SHT31;63583;49.976;20.182;2023-08-17T02:41:05;21.64;71.97
75022;SHT31;63583;49.976;20.182;2023-08-17T02:43:31;21.71;71.73
75022;SHT31;63583;49.976;20.182;2023-08-17T02:45:57;21.83;70.68
75022;SHT31;63583;49.976;20.182;2023-08-17T02:48:22;21.98;69.61
75022;SHT31;63583;49.976;20.182;2023-08-17T02:50:48;22.25;71.20
75022;SHT31;63583;49.976;20.182;2023-08-17T02:53:14;22.26;70.40
75022;SHT31;63583;49.976;20.182;2023-08-17T02:55:39;22.32;69.12
75022;SHT31;63583;49.976;20.182;2023-08-17T02:58:05;21.81;72.66
75022;SHT31;63583;49.976;20.182;2023-08-17T03:00:30;21.73;72.11
75022;SHT31;63583;49.976;20.182;2023-08-17T03:02:56;21.76;70.97
75022;SHT31;63583;49.976;20.182;2023-08-17T03:05:22;21.80;70.98
75022;SHT31;63583;49.976;20.182;2023-08-17T03:07:47;21.84;70.75
75022;SHT31;63583;49.976;20.182;2023-08-17T03:10:13;21.76;71.62
75022;SHT31;63583;49.976;20.182;2023-08-17T03:12:39;21.42;75.01
75022;SHT31;63583;49.976;20.182;2023-08-17T03:15:06;21.25;76.82
75022;SHT31;63583;49.976;20.182;2023-08-17T03:17:31;21.11;77.35
75022;SHT31;63583;49.976;20.182;2023-08-17T03:19:57;21.08;77.44
75022;SHT31;63583;49.976;20.182;2023-08-17T03:22:25;20.92;78.92
75022;SHT31;63583;49.976;20.182;2023-08-17T03:24:51;20.78;80.14
75022;SHT31;63583;49.976;20.182;2023-08-17T03:27:17;20.74;81.50
75022;SHT31;63583;49.976;20.182;2023-08-17T03:29:42;20.63;81.94
75022;SHT31;63583;49.976;20.182;2023-08-17T03:32:08;20.54;82.04
75022;SHT31;63583;49.976;20.182;2023-08-17T03:34:34;20.51;82.13
75022;SHT31;63583;49.976;20.182;2023-08-17T03:36:59;20.48;82.30
75022;SHT31;63583;49.976;20.182;2023-08-17T03:39:25;20.47;82.51
75022;SHT31;63583;49.976;20.182;2023-08-17T03:41:50;20.41;82.75
75022;SHT31;63583;49.976;20.182;2023-08-17T03:44:17;20.40;82.16
75022;SHT31;63583;49.976;20.182;2023-08-17T03:46:42;20.45;81.32
75022;SHT31;63583;49.976;20.182;2023-08-17T03:49:08;20.50;81.01
75022;SHT31;63583;49.976;20.182;2023-08-17T03:51:33;20.51;81.04
75022;SHT31;63583;49.976;20.182;2023-08-17T03:53:59;20.53;81.32
75022;SHT31;63583;49.976;20.182;2023-08-17T03:56:25;20.48;81.82
75022;SHT31;63583;49.976;20.182;2023-08-17T03:58:52;20.43;81.71
75022;SHT31;63583;49.976;20.182;2023-08-17T04:01:18;20.43;80.58
75022;SHT31;63583;49.976;20.182;2023-08-17T04:03:43;20.50;79.93
75022;SHT31;63583;49.976;20.182;2023-08-17T04:06:09;20.58;79.77
75022;SHT31;63583;49.976;20.182;2023-08-17T04:08:36;20.65;79.31
75022;SHT31;63583;49.976;20.182;2023-08-17T04:11:03;20.74;78.72
75022;SHT31;63583;49.976;20.182;2023-08-17T04:13:29;20.80;78.77
75022;SHT31;63583;49.976;20.182;2023-08-17T04:15:54;20.90;79.18
75022;SHT31;63583;49.976;20.182;2023-08-17T04:18:20;20.94;78.92
75022;SHT31;63583;49.976;20.182;2023-08-17T04:20:46;20.99;78.72
75022;SHT31;63583;49.976;20.182;2023-08-17T04:23:12;21.05;78.70
75022;SHT31;63583;49.976;20.182;2023-08-17T04:25:37;21.13;78.47
75022;SHT31;63583;49.976;20.182;2023-08-17T04:28:03;21.19;77.11
75022;SHT31;63583;49.976;20.182;2023-08-17T04:30:29;21.29;74.57
75022;SHT31;63583;49.976;20.182;2023-08-17T04:32:54;21.39;74.88
75022;SHT31;63583;49.976;20.182;2023-08-17T04:35:20;21.47;74.07
75022;SHT31;63583;49.976;20.182;2023-08-17T04:37:46;21.61;73.60
75022;SHT31;63583;49.976;20.182;2023-08-17T04:40:13;21.63;73.61
75022;SHT31;63583;49.976;20.182;2023-08-17T04:42:39;21.67;72.39
75022;SHT31;63583;49.976;20.182;2023-08-17T04:45:05;21.70;73.03
75022;SHT31;63583;49.976;20.182;2023-08-17T04:47:31;21.80;71.46
75022;SHT31;63583;49.976;20.182;2023-08-17T04:49:57;21.93;71.13
75022;SHT31;63583;49.976;20.182;2023-08-17T04:52:22;21.94;74.55
75022;SHT31;63583;49.976;20.182;2023-08-17T04:54:48;22.04;75.71
75022;SHT31;63583;49.976;20.182;2023-08-17T04:57:13;21.94;76.79
75022;SHT31;63583;49.976;20.182;2023-08-17T04:59:40;21.80;77.67
75022;SHT31;63583;49.976;20.182;2023-08-17T05:02:06;21.71;77.71
75022;SHT31;63583;49.976;20.182;2023-08-17T05:04:31;21.64;78.49
75022;SHT31;63583;49.976;20.182;2023-08-17T05:06:57;21.60;78.31
75022;SHT31;63583;49.976;20.182;2023-08-17T05:09:23;21.64;79.03
75022;SHT31;63583;49.976;20.182;2023-08-17T05:11:49;21.68;79.10
75022;SHT31;63583;49.976;20.182;2023-08-17T05:14:14;21.66;78.90
75022;SHT31;63583;49.976;20.182;2023-08-17T05:16:40;21.66;79.34
75022;SHT31;63583;49.976;20.182;2023-08-17T05:19:05;21.57;79.95
75022;SHT31;63583;49.976;20.182;2023-08-17T05:21:31;21.60;80.04
75022;SHT31;63583;49.976;20.182;2023-08-17T05:23:56;21.61;79.90
75022;SHT31;63583;49.976;20.182;2023-08-17T05:26:22;21.51;80.07
75022;SHT31;63583;49.976;20.182;2023-08-17T05:28:48;21.33;79.72
75022;SHT31;63583;49.976;20.182;2023-08-17T05:31:14;21.33;78.90
75022;SHT31;63583;49.976;20.182;2023-08-17T05:33:39;21.36;78.68
75022;SHT31;63583;49.976;20.182;2023-08-17T05:36:07;21.33;78.42
75022;SHT31;63583;49.976;20.182;2023-08-17T05:38:32;21.47;78.49
75022;SHT31;63583;49.976;20.182;2023-08-17T05:40:59;21.57;78.87
75022;SHT31;63583;49.976;20.182;2023-08-17T05:43:25;21.63;79.06
75022;SHT31;63583;49.976;20.182;2023-08-17T05:45:51;21.66;78.70
75022;SHT31;63583;49.976;20.182;2023-08-17T05:48:20;21.76;78.62
75022;SHT31;63583;49.976;20.182;2023-08-17T05:50:49;21.87;79.05
75022;SHT31;63583;49.976;20.182;2023-08-17T05:53:14;21.93;78.73
75022;SHT31;63583;49.976;20.182;2023-08-17T05:55:40;22.06;78.44
75022;SHT31;63583;49.976;20.182;2023-08-17T05:58:05;22.28;77.99
75022;SHT31;63583;49.976;20.182;2023-08-17T06:00:31;22.42;77.29
75022;SHT31;63583;49.976;20.182;2023-08-17T06:02:57;22.55;75.65
75022;SHT31;63583;49.976;20.182;2023-08-17T06:05:32;22.62;77.50
75022;SHT31;63583;49.976;20.182;2023-08-17T06:07:57;22.67;77.35
75022;SHT31;63583;49.976;20.182;2023-08-17T06:10:23;22.79;77.47
75022;SHT31;63583;49.976;20.182;2023-08-17T06:12:55;22.80;77.75
75022;SHT31;63583;49.976;20.182;2023-08-17T06:15:21;22.97;77.58
75022;SHT31;63583;49.976;20.182;2023-08-17T06:17:47;23.21;77.41
75022;SHT31;63583;49.976;20.182;2023-08-17T06:20:16;23.45;76.91
75022;SHT31;63583;49.976;20.182;2023-08-17T06:22:41;23.72;74.89
75022;SHT31;63583;49.976;20.182;2023-08-17T06:25:07;23.80;74.37
75022;SHT31;63583;49.976;20.182;2023-08-17T06:27:34;23.85;75.01
75022;SHT31;63583;49.976;20.182;2023-08-17T06:30:01;23.93;74.44
75022;SHT31;63583;49.976;20.182;2023-08-17T06:32:28;23.83;75.09
75022;SHT31;63583;49.976;20.182;2023-08-17T06:34:54;23.87;75.50
75022;SHT31;63583;49.976;20.182;2023-08-17T06:37:20;24.09;75.10
75022;SHT31;63583;49.976;20.182;2023-08-17T06:39:45;23.79;75.41
75022;SHT31;63583;49.976;20.182;2023-08-17T06:42:11;23.90;74.89
75022;SHT31;63583;49.976;20.182;2023-08-17T06:44:37;23.82;75.71
75022;SHT31;63583;49.976;20.182;2023-08-17T06:47:03;23.62;77.03
75022;SHT31;63583;49.976;20.182;2023-08-17T06:49:28;23.76;76.47
75022;SHT31;63583;49.976;20.182;2023-08-17T06:51:54;23.93;76.44
75022;SHT31;63583;49.976;20.182;2023-08-17T06:54:20;23.97;76.19
75022;SHT31;63583;49.976;20.182;2023-08-17T06:56:45;24.10;75.37
75022;SHT31;63583;49.976;20.182;2023-08-17T06:59:11;24.17;75.65
75022;SHT31;63583;49.976;20.182;2023-08-17T07:01:37;24.06;75.89
75022;SHT31;63583;49.976;20.182;2023-08-17T07:04:03;24.31;75.04
75022;SHT31;63583;49.976;20.182;2023-08-17T07:06:28;24.31;75.38
75022;SHT31;63583;49.976;20.182;2023-08-17T07:08:54;24.43;75.43
75022;SHT31;63583;49.976;20.182;2023-08-17T07:11:20;24.67;74.38
75022;SHT31;63583;49.976;20.182;2023-08-17T07:13:46;24.65;74.46
75022;SHT31;63583;49.976;20.182;2023-08-17T07:16:11;24.72;74.45
75022;SHT31;63583;49.976;20.182;2023-08-17T07:18:37;24.71;73.76
75022;SHT31;63583;49.976;20.182;2023-08-17T07:21:03;24.65;74.10
75022;SHT31;63583;49.976;20.182;2023-08-17T07:23:28;24.81;74.33
75022;SHT31;63583;49.976;20.182;2023-08-17T07:25:54;25.05;72.90
75022;SHT31;63583;49.976;20.182;2023-08-17T07:28:20;25.17;72.85
75022;SHT31;63583;49.976;20.182;2023-08-17T07:30:45;25.17;73.00
75022;SHT31;63583;49.976;20.182;2023-08-17T07:33:11;25.30;72.32
75022;SHT31;63583;49.976;20.182;2023-08-17T07:35:36;25.30;71.73
75022;SHT31;63583;49.976;20.182;2023-08-17T07:38:02;24.71;73.72
75022;SHT31;63583;49.976;20.182;2023-08-17T07:40:28;24.85;74.19
75022;SHT31;63583;49.976;20.182;2023-08-17T07:42:54;25.12;72.31
75022;SHT31;63583;49.976;20.182;2023-08-17T07:45:19;25.27;71.43
75022;SHT31;63583;49.976;20.182;2023-08-17T07:47:45;25.29;71.80
75022;SHT31;63583;49.976;20.182;2023-08-17T07:50:10;25.43;71.63
75022;SHT31;63583;49.976;20.182;2023-08-17T07:52:36;25.53;71.83
75022;SHT31;63583;49.976;20.182;2023-08-17T07:55:02;25.84;70.53
75022;SHT31;63583;49.976;20.182;2023-08-17T07:57:29;25.96;67.74
75022;SHT31;63583;49.976;20.182;2023-08-17T07:59:54;25.77;67.87
75022;SHT31;63583;49.976;20.182;2023-08-17T08:02:20;25.61;69.69
75022;SHT31;63583;49.976;20.182;2023-08-17T08:04:46;26.02;69.23
75022;SHT31;63583;49.976;20.182;2023-08-17T08:07:11;26.43;66.55
75022;SHT31;63583;49.976;20.182;2023-08-17T08:09:37;26.28;67.80
75022;SHT31;63583;49.976;20.182;2023-08-17T08:12:03;26.59;68.32
75022;SHT31;63583;49.976;20.182;2023-08-17T08:14:29;26.57;67.79
75022;SHT31;63583;49.976;20.182;2023-08-17T08:16:55;26.81;67.66
75022;SHT31;63583;49.976;20.182;2023-08-17T08:19:20;26.67;66.95
75022;SHT31;63583;49.976;20.182;2023-08-17T08:21:46;26.88;66.65
75022;SHT31;63583;49.976;20.182;2023-08-17T08:24:12;27.21;65.56
75022;SHT31;63583;49.976;20.182;2023-08-17T08:26:37;27.26;64.98
75022;SHT31;63583;49.976;20.182;2023-08-17T08:29:03;26.81;66.27
75022;SHT31;63583;49.976;20.182;2023-08-17T08:31:29;27.29;67.08
75022;SHT31;63583;49.976;20.182;2023-08-17T08:33:54;27.31;63.80
75022;SHT31;63583;49.976;20.182;2023-08-17T08:36:20;27.19;63.77
75022;SHT31;63583;49.976;20.182;2023-08-17T08:38:46;27.12;64.82
75022;SHT31;63583;49.976;20.182;2023-08-17T08:41:12;26.98;65.94
75022;SHT31;63583;49.976;20.182;2023-08-17T08:43:38;27.11;65.05
75022;SHT31;63583;49.976;20.182;2023-08-17T08:46:04;27.08;64.08
75022;SHT31;63583;49.976;20.182;2023-08-17T08:48:32;27.05;65.51
75022;SHT31;63583;49.976;20.182;2023-08-17T08:51:00;27.11;65.16
75022;SHT31;63583;49.976;20.182;2023-08-17T08:53:37;27.41;65.71
75022;SHT31;63583;49.976;20.182;2023-08-17T08:56:04;27.74;66.72
75022;SHT31;63583;49.976;20.182;2023-08-17T08:58:33;27.71;63.71
75022;SHT31;63583;49.976;20.182;2023-08-17T09:01:00;27.90;63.98
75022;SHT31;63583;49.976;20.182;2023-08-17T09:03:26;27.66;61.10
75022;SHT31;63583;49.976;20.182;2023-08-17T09:05:52;27.52;60.98
75022;SHT31;63583;49.976;20.182;2023-08-17T09:08:22;27.76;64.14
75022;SHT31;63583;49.976;20.182;2023-08-17T09:10:50;28.10;60.59
75022;SHT31;63583;49.976;20.182;2023-08-17T09:13:16;28.15;57.24
75022;SHT31;63583;49.976;20.182;2023-08-17T09:15:42;28.15;58.81
75022;SHT31;63583;49.976;20.182;2023-08-17T09:18:07;28.31;60.01
75022;SHT31;63583;49.976;20.182;2023-08-17T09:20:41;28.28;60.92
75022;SHT31;63583;49.976;20.182;2023-08-17T09:23:17;28.34;60.20
75022;SHT31;63583;49.976;20.182;2023-08-17T09:25:45;28.01;60.89
75022;SHT31;63583;49.976;20.182;2023-08-17T09:28:12;28.03;58.30
75022;SHT31;63583;49.976;20.182;2023-08-17T09:33:19;27.86;61.18
75022;SHT31;63583;49.976;20.182;2023-08-17T09:35:44;27.53;59.53
75022;SHT31;63583;49.976;20.182;2023-08-17T09:38:10;27.46;58.27
75022;SHT31;63583;49.976;20.182;2023-08-17T09:40:36;27.57;61.07
75022;SHT31;63583;49.976;20.182;2023-08-17T09:43:02;27.42;63.04
75022;SHT31;63583;49.976;20.182;2023-08-17T09:45:28;27.55;62.86
75022;SHT31;63583;49.976;20.182;2023-08-17T09:47:54;27.65;61.32
75022;SHT31;63583;49.976;20.182;2023-08-17T09:50:23;27.59;59.95
75022;SHT31;63583;49.976;20.182;2023-08-17T09:52:53;27.55;59.59
75022;SHT31;63583;49.976;20.182;2023-08-17T09:55:22;27.63;59.63
75022;SHT31;63583;49.976;20.182;2023-08-17T09:57:52;27.43;58.31
75022;SHT31;63583;49.976;20.182;2023-08-17T10:00:19;27.28;58.02
75022;SHT31;63583;49.976;20.182;2023-08-17T10:02:49;27.60;58.12
75022;SHT31;63583;49.976;20.182;2023-08-17T10:05:18;27.60;55.98
75022;SHT31;63583;49.976;20.182;2023-08-17T10:07:46;27.62;58.30
75022;SHT31;63583;49.976;20.182;2023-08-17T10:10:16;27.52;57.63
75022;SHT31;63583;49.976;20.182;2023-08-17T10:12:48;27.67;57.36
75022;SHT31;63583;49.976;20.182;2023-08-17T10:15:18;27.86;55.74
75022;SHT31;63583;49.976;20.182;2023-08-17T10:18:53;27.86;57.39
75022;SHT31;63583;49.976;20.182;2023-08-17T10:21:06;28.07;58.62
75022;SHT31;63583;49.976;20.182;2023-08-17T10:23:32;28.42;59.23
75022;SHT31;63583;49.976;20.182;2023-08-17T10:26:00;28.41;55.81
75022;SHT31;63583;49.976;20.182;2023-08-17T10:28:27;28.22;58.76
75022;SHT31;63583;49.976;20.182;2023-08-17T10:30:53;28.34;58.35
75022;SHT31;63583;49.976;20.182;2023-08-17T10:33:19;28.13;58.96
75022;SHT31;63583;49.976;20.182;2023-08-17T10:35:45;28.03;59.58
75022;SHT31;63583;49.976;20.182;2023-08-17T10:38:11;27.94;59.76
75022;SHT31;63583;49.976;20.182;2023-08-17T10:40:40;27.83;60.51
75022;SHT31;63583;49.976;20.182;2023-08-17T10:43:06;27.79;60.54
75022;SHT31;63583;49.976;20.182;2023-08-17T10:45:33;27.57;62.30
75022;SHT31;63583;49.976;20.182;2023-08-17T10:48:27;27.65;61.66
75022;SHT31;63583;49.976;20.182;2023-08-17T10:51:03;27.80;61.51
75022;SHT31;63583;49.976;20.182;2023-08-17T10:53:34;27.80;59.25
75022;SHT31;63583;49.976;20.182;2023-08-17T10:56:00;27.62;61.96
75022;SHT31;63583;49.976;20.182;2023-08-17T10:58:30;27.59;61.58
75022;SHT31;63583;49.976;20.182;2023-08-17T11:00:56;27.46;61.37
75022;SHT31;63583;49.976;20.182;2023-08-17T11:03:22;27.35;62.08
75022;SHT31;63583;49.976;20.182;2023-08-17T11:05:53;27.49;62.50
75022;SHT31;63583;49.976;20.182;2023-08-17T11:08:41;27.67;61.99
75022;SHT31;63583;49.976;20.182;2023-08-17T11:11:16;27.89;61.90
75022;SHT31;63583;49.976;20.182;2023-08-17T11:13:45;27.90;63.08
75022;SHT31;63583;49.976;20.182;2023-08-17T11:16:12;27.98;61.85
75022;SHT31;63583;49.976;20.182;2023-08-17T11:18:38;28.00;59.80
75022;SHT31;63583;49.976;20.182;2023-08-17T11:21:05;28.21;59.78
75022;SHT31;63583;49.976;20.182;2023-08-17T11:23:32;28.61;59.89
75022;SHT31;63583;49.976;20.182;2023-08-17T11:25:59;28.47;57.01
75022;SHT31;63583;49.976;20.182;2023-08-17T11:28:26;28.73;59.96
75022;SHT31;63583;49.976;20.182;2023-08-17T11:31:02;28.97;57.42
75022;SHT31;63583;49.976;20.182;2023-08-17T11:33:30;29.08;55.40
75022;SHT31;63583;49.976;20.182;2023-08-17T11:36:00;29.38;55.58
75022;SHT31;63583;49.976;20.182;2023-08-17T11:38:32;29.38;54.55
75022;SHT31;63583;49.976;20.182;2023-08-17T11:40:59;29.45;54.01
75022;SHT31;63583;49.976;20.182;2023-08-17T11:43:25;29.43;54.85
75022;SHT31;63583;49.976;20.182;2023-08-17T11:45:51;29.59;53.13
75022;SHT31;63583;49.976;20.182;2023-08-17T11:48:19;29.17;55.29
75022;SHT31;63583;49.976;20.182;2023-08-17T11:50:45;29.10;54.53
75022;SHT31;63583;49.976;20.182;2023-08-17T11:53:11;29.00;53.49
75022;SHT31;63583;49.976;20.182;2023-08-17T11:55:36;28.52;56.69
75022;SHT31;63583;49.976;20.182;2023-08-17T11:58:03;28.56;57.92
75022;SHT31;63583;49.976;20.182;2023-08-17T12:00:35;28.48;57.41
75022;SHT31;63583;49.976;20.182;2023-08-17T12:03:02;28.25;57.33
75022;SHT31;63583;49.976;20.182;2023-08-17T12:05:31;28.11;57.45
75022;SHT31;63583;49.976;20.182;2023-08-17T12:07:57;28.13;58.85
75022;SHT31;63583;49.976;20.182;2023-08-17T12:10:23;27.92;59.28
75022;SHT31;63583;49.976;20.182;2023-08-17T12:12:48;27.76;59.35
75022;SHT31;63583;49.976;20.182;2023-08-17T12:15:18;27.50;60.89
75022;SHT31;63583;49.976;20.182;2023-08-17T12:17:47;27.31;62.95
75022;SHT31;63583;49.976;20.182;2023-08-17T12:20:20;27.55;61.25
75022;SHT31;63583;49.976;20.182;2023-08-17T12:22:46;27.49;61.32
75022;SHT31;63583;49.976;20.182;2023-08-17T12:25:13;27.49;61.63
75022;SHT31;63583;49.976;20.182;2023-08-17T12:27:39;26.61;61.12
75022;SHT31;63583;49.976;20.182;2023-08-17T12:30:12;26.19;61.05
75022;SHT31;63583;49.976;20.182;2023-08-17T12:32:38;25.63;61.40
75022;SHT31;63583;49.976;20.182;2023-08-17T12:35:04;25.38;62.41
75022;SHT31;63583;49.976;20.182;2023-08-17T12:37:30;25.27;64.51
75022;SHT31;63583;49.976;20.182;2023-08-17T12:39:55;25.00;64.60
75022;SHT31;63583;49.976;20.182;2023-08-17T12:42:21;24.64;65.64
75022;SHT31;63583;49.976;20.182;2023-08-17T12:44:47;24.18;66.43
75022;SHT31;63583;49.976;20.182;2023-08-17T12:47:12;23.95;67.56
75022;SHT31;63583;49.976;20.182;2023-08-17T12:49:38;23.39;69.10
75022;SHT31;63583;49.976;20.182;2023-08-17T12:52:04;23.10;70.03
75022;SHT31;63583;49.976;20.182;2023-08-17T12:54:29;23.01;69.79
75022;SHT31;63583;49.976;20.182;2023-08-17T12:56:55;22.99;69.35
75022;SHT31;63583;49.976;20.182;2023-08-17T12:59:21;22.96;69.42
75022;SHT31;63583;49.976;20.182;2023-08-17T13:01:46;22.86;70.26
75022;SHT31;63583;49.976;20.182;2023-08-17T13:04:13;22.99;69.57
75022;SHT31;63583;49.976;20.182;2023-08-17T13:06:38;23.04;68.38
75022;SHT31;63583;49.976;20.182;2023-08-17T13:09:05;23.07;68.84
75022;SHT31;63583;49.976;20.182;2023-08-17T13:11:31;23.17;68.40
75022;SHT31;63583;49.976;20.182;2023-08-17T13:13:57;23.27;68.26
75022;SHT31;63583;49.976;20.182;2023-08-17T13:16:23;23.42;68.30
75022;SHT31;63583;49.976;20.182;2023-08-17T13:18:49;23.52;67.29
75022;SHT31;63583;49.976;20.182;2023-08-17T13:21:14;23.65;66.50
75022;SHT31;63583;49.976;20.182;2023-08-17T13:23:43;23.80;67.19
75022;SHT31;63583;49.976;20.182;2023-08-17T13:26:09;24.04;66.72
75022;SHT31;63583;49.976;20.182;2023-08-17T13:28:35;24.16;66.90
75022;SHT31;63583;49.976;20.182;2023-08-17T13:31:01;24.14;66.36
75022;SHT31;63583;49.976;20.182;2023-08-17T13:33:27;24.34;66.71
75022;SHT31;63583;49.976;20.182;2023-08-17T13:35:52;24.54;65.20
75022;SHT31;63583;49.976;20.182;2023-08-17T13:38:18;24.65;64.69
75022;SHT31;63583;49.976;20.182;2023-08-17T13:40:44;24.55;64.73
75022;SHT31;63583;49.976;20.182;2023-08-17T13:43:09;24.61;64.17
75022;SHT31;63583;49.976;20.182;2023-08-17T13:45:40;24.55;63.78
75022;SHT31;63583;49.976;20.182;2023-08-17T13:48:07;24.73;64.07
75022;SHT31;63583;49.976;20.182;2023-08-17T13:50:37;24.93;63.04
75022;SHT31;63583;49.976;20.182;2023-08-17T13:53:03;24.98;62.08
75022;SHT31;63583;49.976;20.182;2023-08-17T13:55:28;25.05;63.06
75022;SHT31;63583;49.976;20.182;2023-08-17T13:57:55;25.29;63.12
75022;SHT31;63583;49.976;20.182;2023-08-17T14:00:22;25.44;62.00
75022;SHT31;63583;49.976;20.182;2023-08-17T14:02:48;25.46;61.49
75022;SHT31;63583;49.976;20.182;2023-08-17T14:05:13;25.44;61.89
75022;SHT31;63583;49.976;20.182;2023-08-17T14:07:39;25.57;61.57
75022;SHT31;63583;49.976;20.182;2023-08-17T14:10:05;25.74;61.00
75022;SHT31;63583;49.976;20.182;2023-08-17T14:12:31;25.81;61.57
75022;SHT31;63583;49.976;20.182;2023-08-17T14:14:56;25.65;61.80
75022;SHT31;63583;49.976;20.182;2023-08-17T14:17:22;25.57;62.42
75022;SHT31;63583;49.976;20.182;2023-08-17T14:19:47;25.48;63.17
75022;SHT31;63583;49.976;20.182;2023-08-17T14:22:13;25.19;63.04
75022;SHT31;63583;49.976;20.182;2023-08-17T14:24:39;25.02;64.06
75022;SHT31;63583;49.976;20.182;2023-08-17T14:27:05;24.76;65.95
75022;SHT31;63583;49.976;20.182;2023-08-17T14:29:31;24.83;66.27
75022;SHT31;63583;49.976;20.182;2023-08-17T14:31:57;24.82;66.49
75022;SHT31;63583;49.976;20.182;2023-08-17T14:34:22;24.92;66.85
75022;SHT31;63583;49.976;20.182;2023-08-17T14:36:48;24.92;66.02
75022;SHT31;63583;49.976;20.182;2023-08-17T14:39:13;24.90;67.10
75022;SHT31;63583;49.976;20.182;2023-08-17T14:41:39;24.90;68.17
75022;SHT31;63583;49.976;20.182;2023-08-17T14:44:05;24.89;67.81
75022;SHT31;63583;49.976;20.182;2023-08-17T14:46:31;24.81;68.46
75022;SHT31;63583;49.976;20.182;2023-08-17T14:48:57;24.71;68.65
75022;SHT31;63583;49.976;20.182;2023-08-17T14:51:24;24.75;69.14
75022;SHT31;63583;49.976;20.182;2023-08-17T14:53:49;24.61;70.28
75022;SHT31;63583;49.976;20.182;2023-08-17T14:56:15;24.54;70.05
75022;SHT31;63583;49.976;20.182;2023-08-17T14:58:41;24.47;69.88
75022;SHT31;63583;49.976;20.182;2023-08-17T15:01:07;24.45;69.96
75022;SHT31;63583;49.976;20.182;2023-08-17T15:03:32;24.31;70.74
75022;SHT31;63583;49.976;20.182;2023-08-17T15:05:58;24.35;70.25
75022;SHT31;63583;49.976;20.182;2023-08-17T15:08:24;24.35;70.83
75022;SHT31;63583;49.976;20.182;2023-08-17T15:10:50;24.38;70.22
75022;SHT31;63583;49.976;20.182;2023-08-17T15:13:16;24.41;69.19
75022;SHT31;63583;49.976;20.182;2023-08-17T15:15:43;24.38;69.89